Time;durP1;ratioP1;P1;durP2;ratioP2;P2;SDS_P1;SDS_P2;PMS_P1;PMS_P2;Temp;Humidity;BMP_temperature;BMP_pressure;BME280_temperature;BME280_humidity;BME280_pressure;Samples;Min_cycle;Max_cycle;Signal;HPM_P1;HPM_P2
2022/02/21 00:01:33;;;;;;;24.10;15.60;;;;;;;2.95;73.58;100147.98;1770217;80;21217;-63
2022/02/21 00:04:39;;;;;;;30.88;15.83;;;;;;;3.02;73.41;100139.22;1771007;80;21213;-62
2022/02/21 00:07:45;;;;;;;27.50;16.10;;;;;;;3.09;73.25;100139.55;1770510;81;21260;-64
2022/02/21 00:10:53;;;;;;;21.70;13.68;;;;;;;3.14;73.00;100137.27;1770125;79;21189;-63
2022/02/21 00:13:58;;;;;;;22.98;12.40;;;;;;;3.15;72.84;100122.77;1770599;80;21369;-62
2022/02/21 00:17:03;;;;;;;20.82;11.73;;;;;;;3.18;72.81;100127.04;1770508;80;21198;-64
2022/02/21 00:20:08;;;;;;;19.55;11.43;;;;;;;3.20;72.81;100122.36;1770614;81;21212;-63
2022/02/21 00:23:15;;;;;;;25.00;11.40;;;;;;;3.26;72.78;100121.81;1770744;80;21258;-63
2022/02/21 00:26:21;;;;;;;19.60;10.75;;;;;;;3.31;72.62;100124.48;1770633;81;21350;-63
2022/02/21 00:29:28;;;;;;;18.92;11.28;;;;;;;3.35;72.40;100128.61;1771232;80;21205;-62
2022/02/21 00:32:34;;;;;;;19.73;11.12;;;;;;;3.39;72.22;100122.44;1770989;80;21367;-62
2022/02/21 00:35:39;;;;;;;20.17;11.05;;;;;;;3.39;71.98;100116.55;1771009;80;21220;-63
2022/02/21 00:38:46;;;;;;;16.32;10.23;;;;;;;3.39;71.73;100111.13;1771015;81;21239;-63
2022/02/21 00:41:53;;;;;;;17.35;9.68;;;;;;;3.38;71.66;100114.81;1770705;81;21271;-63
2022/02/21 00:45:07;;;;;;;17.23;10.30;;;;;;;3.39;71.57;100111.13;1770660;81;21217;-63
2022/02/21 00:48:10;;;;;;;16.73;9.63;;;;;;;3.41;71.43;100117.23;1770710;80;21181;-63
2022/02/21 00:51:15;;;;;;;15.63;9.90;;;;;;;3.42;71.34;100108.15;1770946;80;21193;-63
2022/02/21 00:54:21;;;;;;;15.80;9.83;;;;;;;3.46;71.18;100110.05;1783347;80;21390;-63
2022/02/21 00:57:27;;;;;;;16.55;9.40;;;;;;;3.49;71.03;100105.23;1772206;78;21201;-62
2022/02/21 01:00:33;;;;;;;19.15;9.50;;;;;;;3.56;70.90;100102.34;1770531;81;21861;-63
2022/02/21 01:03:40;;;;;;;14.87;8.90;;;;;;;3.61;70.72;100104.14;1770649;81;21201;-62
2022/02/21 01:06:45;;;;;;;15.23;8.73;;;;;;;3.68;70.54;100099.04;1770710;81;21217;-63
2022/02/21 01:09:51;;;;;;;15.15;8.60;;;;;;;3.72;70.33;100099.97;1770872;80;21228;-62
2022/02/21 01:12:57;;;;;;;16.85;9.15;;;;;;;3.77;70.15;100097.70;1770897;80;21351;-63
2022/02/21 01:16:03;;;;;;;16.90;9.85;;;;;;;3.79;69.91;100090.27;1770688;80;21279;-63
2022/02/21 01:19:08;;;;;;;22.55;11.65;;;;;;;3.80;69.77;100094.72;1770723;80;21220;-62
2022/02/21 01:22:14;;;;;;;27.90;13.48;;;;;;;3.82;69.65;100091.34;1771093;80;21343;-63
2022/02/21 01:25:20;;;;;;;23.90;13.40;;;;;;;3.83;69.53;100082.25;1770583;80;21209;-63
2022/02/21 01:28:26;;;;;;;23.18;12.03;;;;;;;3.80;69.39;100077.12;1771024;80;21285;-64
2022/02/21 01:31:31;;;;;;;26.23;12.80;;;;;;;3.79;69.43;100077.27;1770705;80;21764;-63
2022/02/21 01:34:37;;;;;;;26.42;12.43;;;;;;;3.80;69.53;100072.19;1770961;80;21185;-63
2022/02/21 01:37:43;;;;;;;23.65;12.90;;;;;;;3.80;69.53;100077.12;1771032;80;21228;-63
2022/02/21 01:40:48;;;;;;;20.97;10.90;;;;;;;3.82;69.58;100078.33;1770728;81;21217;-62
2022/02/21 01:43:54;;;;;;;22.30;12.55;;;;;;;3.83;69.59;100081.38;1770731;80;21324;-63
2022/02/21 01:47:00;;;;;;;16.80;10.13;;;;;;;3.84;69.56;100077.67;1770683;80;21200;-63
2022/02/21 01:50:06;;;;;;;22.90;11.28;;;;;;;3.86;69.50;100081.97;1770777;80;21224;-63
2022/02/21 01:53:11;;;;;;;15.78;9.15;;;;;;;3.86;69.44;100072.98;1770780;80;21334;-63
2022/02/21 01:56:17;;;;;;;16.67;9.25;;;;;;;3.83;69.39;100083.60;1772043;80;21328;-63
2022/02/21 01:59:24;;;;;;;17.73;9.20;;;;;;;3.81;69.43;100080.17;1770973;79;21201;-63
2022/02/21 02:02:29;;;;;;;14.53;8.40;;;;;;;3.83;69.48;100077.32;1770674;80;21205;-63
2022/02/21 02:05:36;;;;;;;19.98;8.70;;;;;;;3.85;69.42;100076.20;1770797;81;21189;-63
2022/02/21 02:08:41;;;;;;;16.48;9.03;;;;;;;3.87;69.29;100077.41;1770669;81;21768;-64
2022/02/21 02:11:47;;;;;;;17.75;9.05;;;;;;;3.88;69.17;100075.92;1770476;81;21334;-63
2022/02/21 02:14:52;;;;;;;16.07;9.25;;;;;;;3.88;69.04;100076.41;1770498;80;21228;-62
2022/02/21 02:17:57;;;;;;;18.37;9.33;;;;;;;3.88;68.97;100078.63;1770905;80;21205;-63
2022/02/21 02:21:03;;;;;;;17.02;8.90;;;;;;;3.87;68.87;100081.48;1771147;80;21394;-63
2022/02/21 02:24:10;;;;;;;19.30;8.90;;;;;;;3.87;68.84;100076.06;1771039;80;21892;-63
2022/02/21 02:27:16;;;;;;;18.23;9.10;;;;;;;3.89;68.78;100078.97;1770961;80;21224;-64
2022/02/21 02:30:22;;;;;;;18.37;8.75;;;;;;;3.88;68.75;100075.05;1770583;80;21421;-63
2022/02/21 02:33:29;;;;;;;14.38;7.95;;;;;;;3.88;68.70;100077.77;1770793;80;21177;-62
2022/02/21 02:36:34;;;;;;;14.50;8.13;;;;;;;3.88;68.66;100083.17;1770684;80;21236;-63
2022/02/21 02:39:41;;;;;;;17.10;8.28;;;;;;;3.89;68.60;100085.73;1771281;80;21606;-63
2022/02/21 02:42:47;;;;;;;16.02;8.95;;;;;;;3.91;68.53;100085.11;1770889;80;21374;-63
2022/02/21 02:45:53;;;;;;;21.48;8.85;;;;;;;3.93;68.43;100084.97;1770779;81;21268;-64
2022/02/21 02:48:59;;;;;;;16.37;9.28;;;;;;;3.94;68.41;100078.55;1771192;80;21618;-63
2022/02/21 02:52:04;;;;;;;14.25;8.05;;;;;;;3.95;68.39;100084.30;1771671;80;21425;-63
2022/02/21 02:55:09;;;;;;;16.05;8.38;;;;;;;3.96;68.41;100079.27;1763113;80;21633;-63
2022/02/21 02:58:14;;;;;;;18.62;8.55;;;;;;;3.97;68.39;100078.25;1771025;80;21217;-62
2022/02/21 03:01:19;;;;;;;15.63;8.43;;;;;;;3.96;68.37;100086.90;1762505;81;21369;-63
2022/02/21 03:04:25;;;;;;;15.40;7.90;;;;;;;3.94;68.39;100087.53;1762157;81;21197;-63
2022/02/21 03:07:30;;;;;;;16.50;8.93;;;;;;;3.91;68.42;100095.94;1762198;81;21390;-63
2022/02/21 03:10:36;;;;;;;15.00;9.20;;;;;;;3.86;68.41;100088.73;1762232;81;21382;-62
2022/02/21 03:13:41;;;;;;;17.37;9.13;;;;;;;3.79;68.54;100082.67;1763310;81;21331;-63
2022/02/21 03:16:46;;;;;;;16.42;9.63;;;;;;;3.70;68.61;100087.55;1762903;81;21366;-63
2022/02/21 03:19:52;;;;;;;14.30;8.40;;;;;;;3.59;68.81;100076.36;1762211;81;21196;-63
2022/02/21 03:22:59;;;;;;;23.77;11.08;;;;;;;3.49;69.01;100075.98;1762469;81;21208;-63
2022/02/21 03:26:05;;;;;;;14.63;8.75;;;;;;;3.35;69.24;100069.10;1762069;81;21200;-63
2022/02/21 03:29:10;;;;;;;16.12;9.30;;;;;;;3.25;69.51;100066.02;1744827;81;21347;-62
2022/02/21 03:32:16;;;;;;;17.52;10.10;;;;;;;3.15;69.75;100062.41;1762158;81;21347;-63
2022/02/21 03:35:22;;;;;;;15.72;10.05;;;;;;;3.05;69.98;100076.77;1764941;81;21744;-62
2022/02/21 03:38:26;;;;;;;15.40;8.98;;;;;;;2.97;70.23;100070.31;1762222;81;21334;-62
2022/02/21 03:41:34;;;;;;;13.45;8.80;;;;;;;2.91;70.44;100071.72;1762337;81;21251;-62
2022/02/21 03:44:41;;;;;;;16.30;9.30;;;;;;;2.83;70.48;100068.84;1762562;81;21413;-63
2022/02/21 03:47:46;;;;;;;15.28;8.63;;;;;;;2.72;70.60;100071.63;1762349;81;21801;-62
2022/02/21 03:50:52;;;;;;;17.52;8.95;;;;;;;2.63;70.89;100058.89;1762215;81;21299;-63
2022/02/21 03:53:58;;;;;;;15.58;9.43;;;;;;;2.57;71.16;100062.66;1762218;81;21335;-64
2022/02/21 03:57:03;;;;;;;14.73;8.98;;;;;;;2.51;71.40;100063.16;1762034;81;21293;-63
2022/02/21 04:00:10;;;;;;;14.87;9.23;;;;;;;2.46;71.61;100060.86;1763468;78;21196;-62
2022/02/21 04:03:15;;;;;;;16.35;9.40;;;;;;;2.43;71.78;100071.06;1772372;81;21390;-63
2022/02/21 04:06:22;;;;;;;13.60;8.38;;;;;;;2.38;71.90;100069.28;1772482;81;21201;-61
2022/02/21 04:09:27;;;;;;;15.18;9.15;;;;;;;2.35;72.03;100068.16;1773588;80;21177;-61
2022/02/21 04:12:34;;;;;;;18.12;9.90;;;;;;;2.33;72.17;100066.95;1773206;80;21347;-61
2022/02/21 04:15:39;;;;;;;17.20;10.28;;;;;;;2.30;72.19;100074.48;1772491;80;21346;-60
2022/02/21 04:18:45;;;;;;;14.95;9.35;;;;;;;2.26;72.24;100078.41;1763854;81;21201;-60
2022/02/21 04:21:52;;;;;;;16.02;9.68;;;;;;;2.23;72.39;100079.55;1772749;80;21877;-61
2022/02/21 04:24:58;;;;;;;18.12;10.72;;;;;;;2.21;72.51;100073.89;1772508;81;21382;-60
2022/02/21 04:28:03;;;;;;;16.37;9.55;;;;;;;2.18;72.60;100073.67;1772698;80;21269;-60
2022/02/21 04:31:11;;;;;;;18.98;11.18;;;;;;;2.16;72.66;100060.80;1772831;80;21678;-62
2022/02/21 04:34:16;;;;;;;16.65;10.55;;;;;;;2.13;72.71;100060.19;1772597;80;21343;-61
2022/02/21 04:37:21;;;;;;;18.25;10.50;;;;;;;2.09;72.72;100058.75;1772456;80;21382;-60
2022/02/21 04:40:33;;;;;;;19.57;11.43;;;;;;;2.05;72.93;100064.90;1771256;80;21386;-60
2022/02/21 04:43:39;;;;;;;21.70;12.43;;;;;;;2.04;73.10;100067.25;1770652;81;21484;-62
2022/02/21 04:46:48;;;;;;;20.32;12.25;;;;;;;2.06;73.25;100072.52;1770683;81;21936;-62
2022/02/21 04:49:54;;;;;;;18.70;11.75;;;;;;;2.09;73.39;100069.55;1770833;80;21419;-62
2022/02/21 04:53:00;;;;;;;20.65;12.30;;;;;;;2.13;73.48;100067.80;1770913;80;21244;-63
2022/02/21 04:56:06;;;;;;;19.73;12.40;;;;;;;2.17;73.51;100069.76;1770688;81;21391;-61
2022/02/21 04:59:13;;;;;;;22.22;12.82;;;;;;;2.20;73.48;100071.71;1770656;80;21853;-61
2022/02/21 05:02:19;;;;;;;18.95;11.28;;;;;;;2.22;73.47;100075.63;1767559;80;21232;-62
2022/02/21 05:05:25;;;;;;;19.67;12.40;;;;;;;2.24;73.46;100080.38;1770140;81;21224;-62
2022/02/21 05:08:30;;;;;;;20.45;12.15;;;;;;;2.25;73.43;100080.77;1770318;81;21185;-62
2022/02/21 05:11:37;;;;;;;21.68;13.32;;;;;;;2.24;73.38;100073.15;1768826;80;21725;-62
2022/02/21 05:14:42;;;;;;;23.32;13.78;;;;;;;2.24;73.32;100083.08;1759643;81;21229;-62
2022/02/21 05:17:48;;;;;;;27.15;15.93;;;;;;;2.22;73.23;100085.08;1769381;81;21217;-61
2022/02/21 05:20:54;;;;;;;32.95;16.10;;;;;;;2.21;73.33;100086.05;1769219;81;21768;-62
2022/02/21 05:23:59;;;;;;;26.62;15.78;;;;;;;2.22;73.43;100092.66;1768909;81;21702;-61
2022/02/21 05:27:04;;;;;;;28.40;16.55;;;;;;;2.27;73.55;100094.97;1769212;80;21364;-61
2022/02/21 05:30:13;;;;;;;28.98;16.17;;;;;;;2.30;73.51;100094.73;1770225;80;21292;-63
2022/02/21 05:33:17;;;;;;;31.02;16.17;;;;;;;2.32;73.43;100103.05;1769059;81;21217;-61
2022/02/21 05:36:24;;;;;;;28.70;16.10;;;;;;;2.37;73.46;100101.31;1768675;81;21407;-62
2022/02/21 05:39:31;;;;;;;24.27;13.95;;;;;;;2.43;73.43;100111.58;1768748;81;21262;-62
2022/02/21 05:42:36;;;;;;;26.12;14.00;;;;;;;2.45;73.30;100116.36;1761348;81;21182;-62
2022/02/21 05:45:43;;;;;;;23.95;15.00;;;;;;;2.50;73.27;100115.00;1770584;79;21366;-62
2022/02/21 05:48:49;;;;;;;23.47;14.03;;;;;;;2.54;73.21;100102.93;1769427;80;21869;-62
2022/02/21 05:51:54;;;;;;;22.85;14.03;;;;;;;2.58;73.20;100109.80;1764594;81;21220;-62
2022/02/21 05:55:00;;;;;;;23.80;13.72;;;;;;;2.64;73.18;100114.66;1745479;81;21570;-63
2022/02/21 05:58:05;;;;;;;21.27;12.95;;;;;;;2.71;73.15;100119.05;1768420;81;21181;-62
2022/02/21 06:01:10;;;;;;;22.42;13.50;;;;;;;2.79;73.14;100111.14;1782119;78;21715;-63
2022/02/21 06:04:23;;;;;;;27.65;17.60;;;;;;;2.87;73.07;100109.98;1751869;80;21314;-62
2022/02/21 06:07:30;;;;;;;31.90;19.80;;;;;;;2.95;73.00;100101.53;1763289;81;21830;-63
2022/02/21 06:10:39;;;;;;;34.85;19.57;;;;;;;3.04;72.94;100095.30;1728882;82;21235;-62
2022/02/21 06:13:47;;;;;;;28.40;17.30;;;;;;;3.15;72.81;100090.80;1696343;83;21201;-62
2022/02/21 06:16:53;;;;;;;37.33;20.95;;;;;;;3.23;72.71;100099.97;1706019;82;21857;-62
2022/02/21 06:20:00;;;;;;;32.28;17.75;;;;;;;3.30;72.59;100088.94;1711923;82;21223;-62
2022/02/21 06:23:20;;;;;;;26.55;15.03;;;;;;;3.41;72.47;100092.89;1744174;80;21605;-66
2022/02/21 06:26:26;;;;;;;24.67;14.93;;;;;;;3.51;72.33;100087.02;1768129;79;21235;-62
2022/02/21 06:29:33;;;;;;;25.08;13.20;;;;;;;3.60;72.17;100086.17;1759596;79;21320;-61
2022/02/21 06:32:38;;;;;;;24.25;13.70;;;;;;;3.68;72.03;100095.81;1758188;80;21252;-62
2022/02/21 06:35:43;;;;;;;26.30;14.55;;;;;;;3.75;71.94;100092.92;1738261;81;21267;-61
2022/02/21 06:38:53;;;;;;;26.48;14.40;;;;;;;3.83;71.86;100093.56;1751449;81;21247;-61
2022/02/21 06:41:59;;;;;;;23.75;13.15;;;;;;;3.91;71.76;100087.82;1744886;81;21216;-63
2022/02/21 06:45:05;;;;;;;20.82;13.18;;;;;;;3.97;71.67;100087.25;1751117;81;21311;-62
2022/02/21 06:48:12;;;;;;;20.57;12.28;;;;;;;4.04;71.54;100076.19;1743252;81;21201;-62
2022/02/21 06:51:17;;;;;;;24.05;12.25;;;;;;;4.10;71.39;100072.06;1767126;81;21379;-64
2022/02/21 06:54:24;;;;;;;20.48;12.13;;;;;;;4.17;71.21;100081.34;1768016;79;21213;-62
2022/02/21 06:57:31;;;;;;;19.77;12.03;;;;;;;4.21;71.04;100075.98;1739448;82;21734;-63
2022/02/21 07:00:37;;;;;;;20.85;11.45;;;;;;;4.26;70.99;100075.93;1756064;79;21208;-62
2022/02/21 07:03:43;;;;;;;16.62;11.12;;;;;;;4.30;70.83;100074.63;1757392;79;21180;-63
2022/02/21 07:06:50;;;;;;;21.95;11.57;;;;;;;4.34;70.63;100076.03;1760440;81;21683;-63
2022/02/21 07:09:57;;;;;;;19.60;11.15;;;;;;;4.39;70.63;100069.69;1768764;79;21746;-63
2022/02/21 07:13:04;;;;;;;19.67;10.93;;;;;;;4.44;70.40;100065.19;1767763;81;21186;-63
2022/02/21 07:16:10;;;;;;;17.98;10.60;;;;;;;4.48;70.43;100069.34;1738325;81;21326;-62
2022/02/21 07:19:17;;;;;;;19.20;10.40;;;;;;;4.53;70.18;100057.04;1748689;81;21229;-61
2022/02/21 07:22:23;;;;;;;22.37;11.28;;;;;;;4.60;70.05;100068.16;1767616;81;21687;-60
2022/02/21 07:25:37;;;;;;;20.77;9.70;;;;;;;4.67;69.97;100061.66;1761378;79;21634;-61
2022/02/21 07:28:48;;;;;;;17.20;10.00;;;;;;;4.73;69.75;100058.35;1773773;80;21356;-62
2022/02/21 07:31:54;;;;;;;16.85;9.68;;;;;;;4.77;69.62;100044.38;1765049;81;21359;-61
2022/02/21 07:35:02;;;;;;;16.80;9.75;;;;;;;4.83;69.56;100045.14;1769590;79;21356;-60
2022/02/21 07:38:09;;;;;;;15.05;8.98;;;;;;;4.90;69.52;100038.62;1768965;80;21220;-61
2022/02/21 07:41:18;;;;;;;14.23;9.70;;;;;;;4.98;69.51;100050.95;1769264;80;21842;-62
2022/02/21 07:44:28;;;;;;;18.30;9.75;;;;;;;5.06;69.33;100038.33;1768387;79;21916;-62
2022/02/21 07:47:36;;;;;;;17.32;9.55;;;;;;;5.14;69.18;100030.83;1760760;81;21211;-64
2022/02/21 07:50:41;;;;;;;18.42;9.45;;;;;;;5.21;68.93;100037.34;1764875;79;21228;-62
2022/02/21 07:53:47;;;;;;;17.67;10.05;;;;;;;5.26;68.83;100039.97;1754947;81;21217;-61
2022/02/21 07:56:54;;;;;;;15.45;9.35;;;;;;;5.34;68.80;100033.29;1739493;82;21201;-61
2022/02/21 08:00:01;;;;;;;17.82;10.20;;;;;;;5.44;68.78;100037.30;1754525;79;21325;-59
2022/02/21 08:03:08;;;;;;;18.27;10.98;;;;;;;5.55;68.92;100033.02;1770129;80;21741;-59
2022/02/21 08:06:16;;;;;;;15.43;10.13;;;;;;;5.65;68.81;100038.73;1745901;80;21225;-61
2022/02/21 08:09:22;;;;;;;12.33;8.25;;;;;;;5.76;68.59;100040.36;1745591;79;21574;-59
2022/02/21 08:12:29;;;;;;;15.38;9.50;;;;;;;5.88;68.15;100044.08;1766772;80;21212;-61
2022/02/21 08:15:36;;;;;;;17.37;9.75;;;;;;;5.98;68.03;100044.88;1738623;81;21629;-58
2022/02/21 08:18:43;;;;;;;14.35;8.33;;;;;;;6.09;67.69;100042.42;1738754;82;21204;-60
2022/02/21 08:21:52;;;;;;;14.13;8.93;;;;;;;6.16;67.27;100047.59;1756671;81;21355;-61
2022/02/21 08:24:58;;;;;;;16.23;8.78;;;;;;;6.23;66.60;100050.05;1758288;80;21197;-61
2022/02/21 08:28:06;;;;;;;15.08;8.90;;;;;;;6.23;66.25;100048.69;1749097;80;21217;-61
2022/02/21 08:31:18;;;;;;;12.18;8.50;;;;;;;6.25;66.01;100053.44;1769137;81;21367;-61
2022/02/21 08:34:24;;;;;;;13.30;8.50;;;;;;;6.29;65.79;100050.77;1768279;81;21371;-60
2022/02/21 08:37:30;;;;;;;13.93;7.70;;;;;;;6.32;65.87;100059.97;1768544;81;21213;-61
2022/02/21 08:40:39;;;;;;;13.88;7.55;;;;;;;6.37;65.75;100055.42;1769101;81;21224;-62
2022/02/21 08:43:45;;;;;;;11.18;7.92;;;;;;;6.41;65.81;100054.94;1747322;81;21498;-61
2022/02/21 08:46:51;;;;;;;13.05;8.35;;;;;;;6.47;66.04;100062.46;1761107;81;21848;-61
2022/02/21 08:49:57;;;;;;;12.23;7.80;;;;;;;6.54;66.13;100068.98;1765813;81;21213;-61
2022/02/21 08:53:05;;;;;;;14.05;8.40;;;;;;;6.59;65.86;100070.73;1760958;80;21766;-64
2022/02/21 08:56:16;;;;;;;15.00;8.73;;;;;;;6.64;66.05;100060.73;1743937;81;21239;-65
2022/02/21 08:59:24;;;;;;;15.68;8.15;;;;;;;6.71;65.66;100060.43;1758766;79;21891;-62
2022/02/21 09:02:40;;;;;;;12.35;7.92;;;;;;;6.74;65.36;100060.14;1752823;81;21346;-62
2022/02/21 09:05:48;;;;;;;14.58;8.23;;;;;;;6.77;65.28;100053.84;1764453;79;21302;-63
2022/02/21 09:08:54;;;;;;;14.38;7.95;;;;;;;6.80;65.10;100047.25;1761358;80;21749;-62
2022/02/21 09:12:03;;;;;;;11.15;8.03;;;;;;;6.87;65.06;100057.82;1767566;80;21252;-63
2022/02/21 09:15:10;;;;;;;13.03;8.13;;;;;;;6.94;65.18;100052.96;1767257;80;21208;-62
2022/02/21 09:18:15;;;;;;;10.23;7.22;;;;;;;7.07;65.12;100055.25;1730529;81;21204;-61
2022/02/21 09:21:22;;;;;;;13.35;10.03;;;;;;;7.18;64.93;100059.88;1730740;83;21209;-62
2022/02/21 09:24:29;;;;;;;11.43;7.50;;;;;;;7.30;64.88;100057.23;1727232;82;21195;-61
2022/02/21 09:27:35;;;;;;;11.25;7.70;;;;;;;7.40;64.51;100050.30;1768042;80;21251;-62
2022/02/21 09:30:42;;;;;;;11.00;7.70;;;;;;;7.51;64.21;100045.42;1769212;80;21272;-61
2022/02/21 09:33:47;;;;;;;11.88;6.72;;;;;;;7.67;64.27;100046.48;1767629;80;21256;-60
2022/02/21 09:36:54;;;;;;;9.73;6.12;;;;;;;7.78;63.29;100042.08;1743374;81;21204;-58
2022/02/21 09:40:00;;;;;;;10.95;6.12;;;;;;;7.82;62.40;100044.30;1759753;81;21952;-61
2022/02/21 09:43:05;;;;;;;7.92;5.10;;;;;;;7.87;62.28;100040.58;1764489;80;21184;-60
2022/02/21 09:46:13;;;;;;;8.33;5.17;;;;;;;7.96;61.83;100030.55;1746352;81;21208;-61
2022/02/21 09:49:24;;;;;;;8.60;5.33;;;;;;;8.06;61.13;100028.50;1758317;79;21197;-62
2022/02/21 09:52:26;;;;;;;11.35;5.22;;;;;;;8.16;61.13;100025.98;1757103;80;21232;-59
2022/02/21 09:55:32;;;;;;;8.63;5.70;;;;;;;8.24;60.36;100017.84;1769326;81;21833;-61
2022/02/21 09:58:39;;;;;;;10.05;5.08;;;;;;;8.26;59.96;100007.59;1769598;80;21239;-60
2022/02/21 10:01:47;;;;;;;10.58;5.70;;;;;;;8.30;59.37;100004.02;1768282;80;21209;-60
2022/02/21 10:04:52;;;;;;;9.55;5.60;;;;;;;8.36;58.97;100004.70;1769030;79;21343;-59
2022/02/21 10:08:01;;;;;;;7.62;5.40;;;;;;;8.41;58.60;99997.72;1765865;80;21287;-59
2022/02/21 10:11:07;;;;;;;8.70;4.80;;;;;;;8.55;58.62;99997.52;1766802;81;21401;-59
2022/02/21 10:14:24;;;;;;;9.03;5.17;;;;;;;8.69;58.22;99999.04;1767255;81;21330;-59
2022/02/21 10:17:33;;;;;;;7.28;4.47;;;;;;;8.83;57.29;99994.77;1768039;80;21288;-60
2022/02/21 10:20:37;;;;;;;8.85;4.35;;;;;;;8.93;56.22;99977.66;1767635;80;21213;-60
2022/02/21 10:23:45;;;;;;;6.58;4.58;;;;;;;9.04;56.03;99986.84;1768997;81;21383;-60
2022/02/21 10:26:52;;;;;;;9.03;4.55;;;;;;;9.18;55.68;99977.08;1727466;80;21261;-58
2022/02/21 10:30:16;;;;;;;10.72;5.08;;;;;;;9.34;55.28;99975.11;1766975;80;21654;-59
2022/02/21 10:33:23;;;;;;;10.78;5.83;;;;;;;9.42;54.70;99972.88;1758706;80;21192;-60
2022/02/21 10:36:49;;;;;;;9.15;5.12;;;;;;;9.51;54.41;99960.36;1768227;80;21193;-57
2022/02/21 10:39:56;;;;;;;9.05;4.83;;;;;;;9.66;54.10;99966.74;1770084;79;21220;-59
2022/02/21 10:43:17;;;;;;;7.65;4.45;;;;;;;9.81;53.02;99964.09;1740084;82;21375;-58
2022/02/21 10:46:23;;;;;;;7.70;5.40;;;;;;;9.89;52.44;99944.39;1740316;81;21281;-57
2022/02/21 10:49:29;;;;;;;11.22;5.22;;;;;;;9.99;52.36;99940.87;1739773;80;21379;-59
2022/02/21 10:52:43;;;;;;;8.68;3.87;;;;;;;10.09;51.74;99936.05;1740055;82;21351;-60
2022/02/21 10:55:52;;;;;;;7.67;4.22;;;;;;;10.19;50.63;99932.56;1732850;81;21212;-58
2022/02/21 10:58:59;;;;;;;9.80;5.30;;;;;;;10.27;50.48;99931.13;1700875;82;21188;-59
2022/02/21 11:02:07;;;;;;;8.05;4.00;;;;;;;10.33;49.65;99931.74;1740613;82;21229;-59
2022/02/21 11:05:16;;;;;;;11.90;4.92;;;;;;;10.38;49.27;99927.08;1740447;81;21419;-63
2022/02/21 11:08:24;;;;;;;6.75;3.62;;;;;;;10.39;49.12;99920.05;1764262;78;21590;-60
2022/02/21 11:11:33;;;;;;;10.98;4.37;;;;;;;10.39;48.83;99921.42;1753207;81;21836;-60
2022/02/21 11:14:41;;;;;;;6.28;4.22;;;;;;;10.38;48.43;99912.89;1748785;81;21371;-60
2022/02/21 11:17:46;;;;;;;5.37;3.30;;;;;;;10.40;48.18;99914.90;1745994;81;21264;-59
2022/02/21 11:20:53;;;;;;;6.10;3.47;;;;;;;10.42;47.32;99914.20;1741527;81;21865;-59
2022/02/21 11:24:01;;;;;;;5.72;3.27;;;;;;;10.46;47.22;99908.67;1706543;84;21379;-62
2022/02/21 11:27:28;;;;;;;7.85;3.40;;;;;;;10.52;46.77;99904.36;1721363;83;21292;-61
2022/02/21 11:30:37;;;;;;;6.55;3.45;;;;;;;10.58;47.43;99898.12;1721334;82;21237;-60
2022/02/21 11:34:09;;;;;;;4.22;2.75;;;;;;;10.69;46.79;99897.66;1692821;85;21241;-61
2022/02/21 11:37:27;;;;;;;10.35;4.40;;;;;;;10.77;45.64;99892.59;1692817;85;21379;-60
2022/02/21 11:40:35;;;;;;;5.97;3.50;;;;;;;10.82;45.28;99884.67;1691205;83;21394;-61
2022/02/21 11:43:54;;;;;;;8.98;4.42;;;;;;;10.93;44.98;99884.20;1691335;85;21711;-61
2022/02/21 11:47:04;;;;;;;10.68;5.70;;;;;;;11.02;44.11;99884.45;1754310;81;21209;-60
2022/02/21 11:50:30;;;;;;;7.55;4.60;;;;;;;11.10;44.17;99882.97;1773931;79;21363;-59
2022/02/21 11:53:40;;;;;;;11.83;6.35;;;;;;;11.20;44.33;99868.42;1764497;81;21339;-63
2022/02/21 11:57:03;;;;;;;10.63;4.55;;;;;;;11.33;44.00;99868.59;1716471;82;21414;-63
2022/02/21 12:00:43;;;;;;;11.60;4.28;;;;;;;11.42;44.10;99871.53;1698572;84;22073;-67
2022/02/21 12:04:01;;;;;;;7.40;4.00;;;;;;;11.50;43.71;99870.05;1722748;82;21350;-67
2022/02/21 12:07:09;;;;;;;5.95;3.62;;;;;;;11.61;43.68;99866.79;1713562;82;21737;-65
2022/02/21 12:10:29;;;;;;;6.37;3.08;;;;;;;11.69;43.33;99859.84;1735017;79;21235;-63
2022/02/21 12:13:42;;;;;;;7.37;4.15;;;;;;;11.77;43.29;99866.56;1770110;80;21936;-64
2022/02/21 12:17:14;;;;;;;6.25;3.50;;;;;;;11.82;43.55;99856.72;1770679;80;21186;-64
2022/02/21 12:20:44;;;;;;;9.60;3.65;;;;;;;11.93;44.13;99847.97;1770337;80;21213;-64
2022/02/21 12:24:06;;;;;;;5.83;3.20;;;;;;;12.08;43.02;99837.42;1770623;80;21212;-64
2022/02/21 12:27:21;;;;;;;9.00;3.95;;;;;;;12.14;42.51;99829.25;1770314;80;21345;-65
2022/02/21 12:30:44;;;;;;;6.70;3.70;;;;;;;12.23;42.69;99824.44;1770501;79;21224;-63
2022/02/21 12:33:51;;;;;;;7.10;3.52;;;;;;;12.29;42.98;99828.61;1770169;80;21844;-64
2022/02/21 12:36:57;;;;;;;7.83;3.65;;;;;;;12.41;42.81;99828.39;1771511;80;21366;-65
2022/02/21 12:40:04;;;;;;;11.20;3.27;;;;;;;12.50;42.70;99831.30;1771180;79;21891;-65
2022/02/21 12:43:11;;;;;;;5.78;3.37;;;;;;;12.59;42.58;99821.01;1762852;81;21456;-64
2022/02/21 12:46:17;;;;;;;7.87;3.20;;;;;;;12.69;43.07;99812.72;1771045;80;21216;-65
2022/02/21 12:49:33;;;;;;;7.55;3.60;;;;;;;12.81;43.04;99815.73;1766869;79;21892;-64
2022/02/21 12:52:40;;;;;;;5.47;3.17;;;;;;;12.93;42.34;99819.08;1767429;81;21466;-63
2022/02/21 12:55:54;;;;;;;8.65;3.10;;;;;;;12.99;41.15;99816.88;1768825;80;21757;-64
2022/02/21 12:59:04;;;;;;;7.08;3.12;;;;;;;12.98;41.42;99817.94;1742089;81;21754;-64
2022/02/21 13:02:13;;;;;;;7.53;3.77;;;;;;;13.01;42.44;99820.30;1768049;80;21320;-65
2022/02/21 13:05:22;;;;;;;10.63;6.12;;;;;;;13.05;42.63;99819.38;1762862;79;21201;-63
2022/02/21 13:08:42;;;;;;;13.13;7.75;;;;;;;13.05;42.80;99820.20;1757072;80;21343;-63
2022/02/21 13:11:54;;;;;;;11.85;6.78;;;;;;;13.02;42.60;99821.13;1767279;80;21574;-64
2022/02/21 13:14:58;;;;;;;11.05;5.83;;;;;;;12.93;42.55;99820.45;1767498;81;21429;-63
2022/02/21 13:18:06;;;;;;;12.55;6.67;;;;;;;12.88;42.41;99822.95;1766303;80;21235;-63
2022/02/21 13:21:15;;;;;;;9.30;4.40;;;;;;;12.83;42.64;99835.59;1765880;81;21185;-64
2022/02/21 13:24:23;;;;;;;9.73;3.35;;;;;;;12.78;43.28;99839.50;1769412;79;21231;-64
2022/02/21 13:27:38;;;;;;;9.98;4.45;;;;;;;12.77;44.15;99829.03;1766828;81;21178;-64
2022/02/21 13:30:47;;;;;;;9.08;5.45;;;;;;;12.77;44.84;99834.52;1756451;80;21205;-62
2022/02/21 13:33:56;;;;;;;7.80;4.05;;;;;;;12.83;44.88;99835.08;1759006;80;21408;-64
2022/02/21 13:37:13;;;;;;;6.03;3.92;;;;;;;12.85;44.23;99831.61;1748134;80;21585;-62
2022/02/21 13:40:38;;;;;;;10.75;4.83;;;;;;;12.83;43.90;99822.71;1688874;82;21277;-64
2022/02/21 13:43:52;;;;;;;10.78;5.33;;;;;;;12.84;44.11;99827.17;1674026;83;21249;-65
2022/02/21 13:46:58;;;;;;;10.40;5.53;;;;;;;12.81;44.26;99841.84;1697440;84;21766;-64
2022/02/21 13:50:06;;;;;;;11.53;5.62;;;;;;;12.63;44.31;99834.13;1714843;83;21202;-65
2022/02/21 13:53:38;;;;;;;11.35;5.67;;;;;;;12.44;44.90;99842.23;1701973;84;21201;-66
2022/02/21 13:56:43;;;;;;;11.30;5.90;;;;;;;12.26;45.45;99833.13;1716402;82;21213;-64
2022/02/21 13:59:56;;;;;;;10.15;5.83;;;;;;;12.15;46.12;99828.70;1706346;83;21224;-64
2022/02/21 14:03:06;;;;;;;11.78;6.25;;;;;;;12.03;46.45;99825.68;1765856;80;21750;-64
2022/02/21 14:06:12;;;;;;;12.18;5.80;;;;;;;11.87;46.81;99834.19;1762876;81;21208;-65
2022/02/21 14:09:27;;;;;;;8.13;5.42;;;;;;;11.73;47.33;99832.38;1764115;79;21585;-63
2022/02/21 14:13:03;;;;;;;14.35;5.62;;;;;;;11.64;47.75;99830.28;1762615;79;21754;-63
2022/02/21 14:16:11;;;;;;;12.18;6.45;;;;;;;11.52;48.23;99831.82;1763362;80;21201;-64
2022/02/21 14:19:17;;;;;;;10.90;5.85;;;;;;;11.43;48.56;99826.66;1776688;79;21193;-64
2022/02/21 14:22:22;;;;;;;10.18;4.97;;;;;;;11.38;48.93;99819.03;1753494;81;21316;-64
2022/02/21 14:25:28;;;;;;;5.45;3.83;;;;;;;11.32;49.37;99821.15;1764272;79;21264;-64
2022/02/21 14:28:33;;;;;;;6.92;3.67;;;;;;;11.26;49.76;99818.34;1752701;81;21792;-64
2022/02/21 14:31:38;;;;;;;10.08;4.10;;;;;;;11.18;50.39;99823.97;1767291;80;21538;-65
2022/02/21 14:34:48;;;;;;;16.60;5.90;;;;;;;11.11;51.00;99819.77;1767918;81;21241;-63